createdAt,value
2022-09-29T00:00:51.691Z,14.79
2022-09-29T00:03:21.251Z,14.77
2022-09-29T00:05:50.444Z,14.74
2022-09-29T00:08:18.484Z,14.72
2022-09-29T00:10:46.627Z,14.69
2022-09-29T00:13:14.556Z,14.69
2022-09-29T00:15:42.605Z,14.69
2022-09-29T00:18:14.928Z,14.64
2022-09-29T00:20:44.383Z,14.71
2022-09-29T00:23:12.271Z,14.69
2022-09-29T00:25:41.370Z,14.71
2022-09-29T00:28:09.434Z,14.71
2022-09-29T00:30:37.352Z,14.70
2022-09-29T00:33:05.283Z,14.72
2022-09-29T00:35:33.122Z,14.73
2022-09-29T00:38:02.364Z,14.75
2022-09-29T00:40:30.310Z,14.79
2022-09-29T00:42:58.277Z,14.85
2022-09-29T00:45:26.274Z,14.60
2022-09-29T00:47:59.944Z,14.92
2022-09-29T00:50:29.785Z,14.96
2022-09-29T00:52:58.448Z,14.98
2022-09-29T00:55:29.279Z,15.00
2022-09-29T00:57:58.713Z,15.07
2022-09-29T01:00:26.668Z,15.08
2022-09-29T01:02:56.543Z,15.05
2022-09-29T01:05:26.882Z,15.13
2022-09-29T01:07:54.809Z,15.15
2022-09-29T01:10:22.732Z,15.18
2022-09-29T01:12:52.005Z,15.23
2022-09-29T01:15:20.863Z,15.28
2022-09-29T01:17:49.705Z,15.37
2022-09-29T01:20:19.080Z,15.46
2022-09-29T01:23:09.923Z,15.53
2022-09-29T01:25:56.293Z,15.61
2022-09-29T01:28:37.705Z,15.71
2022-09-29T01:31:18.217Z,15.83
2022-09-29T01:33:48.580Z,15.94
2022-09-29T01:36:20.647Z,15.99
2022-09-29T01:38:55.194Z,16.12
2022-09-29T01:41:28.714Z,16.10
2022-09-29T01:43:58.967Z,16.09
2022-09-29T01:46:29.667Z,16.21
2022-09-29T01:48:58.085Z,16.09
2022-09-29T01:51:29.239Z,16.19
2022-09-29T01:53:59.165Z,16.19
2022-09-29T01:56:29.120Z,16.21
2022-09-29T01:58:58.063Z,16.23
2022-09-29T02:01:29.525Z,16.26
2022-09-29T02:03:58.969Z,16.27
2022-09-29T02:06:29.861Z,16.32
2022-09-29T02:08:58.394Z,16.38
2022-09-29T02:11:26.822Z,16.41
2022-09-29T02:13:57.710Z,16.45
2022-09-29T02:16:27.362Z,16.46
2022-09-29T02:18:58.682Z,16.54
2022-09-29T02:21:27.329Z,16.59
2022-09-29T02:23:55.249Z,16.62
2022-09-29T02:26:23.166Z,16.66
2022-09-29T02:28:52.318Z,16.56
2022-09-29T02:31:20.574Z,16.47
2022-09-29T02:33:48.577Z,16.41
2022-09-29T02:36:23.985Z,16.38
2022-09-29T02:38:55.413Z,16.35
2022-09-29T02:41:30.421Z,16.33
2022-09-29T02:44:14.747Z,16.30
2022-09-29T02:46:48.332Z,16.33
2022-09-29T02:49:24.591Z,16.32
2022-09-29T02:51:56.790Z,16.33
2022-09-29T02:54:33.454Z,16.26
2022-09-29T02:57:07.226Z,16.37
2022-09-29T02:59:38.302Z,16.39
2022-09-29T03:02:06.196Z,16.38
2022-09-29T03:04:34.090Z,16.37
2022-09-29T03:07:03.341Z,16.39
2022-09-29T03:09:31.228Z,16.38
2022-09-29T03:11:59.190Z,16.41
2022-09-29T03:14:27.096Z,16.43
2022-09-29T03:16:55.038Z,16.46
2022-09-29T03:19:22.953Z,16.49
2022-09-29T03:21:50.842Z,16.53
2022-09-29T03:24:20.119Z,16.57
2022-09-29T03:26:48.094Z,16.62
2022-09-29T03:29:16.110Z,16.66
2022-09-29T03:31:44.127Z,16.69
2022-09-29T03:34:12.064Z,16.74
2022-09-29T03:36:41.423Z,16.77
2022-09-29T03:39:09.354Z,16.73
2022-09-29T03:41:38.677Z,16.70
2022-09-29T03:44:06.624Z,16.65
2022-09-29T03:46:34.525Z,16.64
2022-09-29T03:49:02.419Z,16.64
2022-09-29T03:51:30.290Z,16.67
2022-09-29T03:53:58.201Z,16.68
2022-09-29T03:56:26.126Z,16.69
2022-09-29T03:58:55.420Z,16.70
2022-09-29T04:01:23.402Z,16.40
2022-09-29T04:03:51.565Z,16.61
2022-09-29T04:06:19.495Z,16.66
2022-09-29T04:08:49.515Z,16.68
2022-09-29T04:11:17.437Z,16.68
2022-09-29T04:13:45.318Z,16.70
2022-09-29T04:16:14.696Z,16.74
2022-09-29T04:18:42.685Z,16.78
2022-09-29T04:21:10.675Z,16.75
2022-09-29T04:23:38.661Z,16.78
2022-09-29T04:26:06.871Z,16.80
2022-09-29T04:28:34.865Z,16.80
2022-09-29T04:31:02.757Z,16.78
2022-09-29T04:33:32.063Z,16.77
2022-09-29T04:36:00.122Z,16.76
2022-09-29T04:38:28.113Z,16.74
2022-09-29T04:40:56.118Z,16.75
2022-09-29T04:43:24.060Z,16.75
2022-09-29T04:45:52.025Z,16.69
2022-09-29T04:48:19.993Z,16.63
2022-09-29T04:50:51.349Z,16.57
2022-09-29T04:53:19.653Z,16.55
2022-09-29T04:55:47.513Z,16.54
2022-09-29T04:58:16.082Z,16.50
2022-09-29T05:00:43.960Z,16.59
2022-09-29T05:03:12.361Z,16.58
2022-09-29T05:05:40.295Z,16.58
2022-09-29T05:08:09.685Z,16.59
2022-09-29T05:10:37.602Z,16.59
2022-09-29T05:13:05.497Z,16.62
2022-09-29T05:15:33.389Z,16.66
2022-09-29T05:18:03.328Z,16.67
2022-09-29T05:20:38.808Z,16.54
2022-09-29T05:23:12.550Z,16.65
2022-09-29T05:25:40.979Z,16.66
2022-09-29T05:28:09.510Z,16.67
2022-09-29T05:30:37.681Z,16.67
2022-09-29T05:33:05.684Z,16.75
2022-09-29T05:35:33.604Z,16.79
2022-09-29T05:38:01.543Z,16.82
2022-09-29T05:40:30.846Z,16.86
2022-09-29T05:42:59.931Z,16.89
2022-09-29T05:45:27.895Z,16.88
2022-09-29T05:47:59.141Z,16.95
2022-09-29T05:50:27.149Z,16.97
2022-09-29T05:52:55.063Z,16.99
2022-09-29T05:55:24.172Z,16.99
2022-09-29T05:57:53.479Z,17.03
2022-09-29T06:00:21.814Z,17.06
2022-09-29T06:02:49.808Z,17.06
2022-09-29T06:05:17.953Z,17.12
2022-09-29T06:07:45.925Z,17.14
2022-09-29T06:10:13.835Z,17.17
2022-09-29T06:12:41.725Z,17.18
2022-09-29T06:15:12.143Z,17.18
2022-09-29T06:17:43.652Z,17.19
2022-09-29T06:20:12.380Z,17.17
2022-09-29T06:22:40.310Z,17.21
2022-09-29T06:25:09.820Z,17.23
2022-09-29T06:27:37.792Z,17.20
2022-09-29T06:30:06.964Z,17.15
2022-09-29T06:32:37.727Z,17.07
2022-09-29T06:35:25.146Z,17.05
2022-09-29T06:37:53.381Z,17.04
2022-09-29T06:40:23.861Z,17.08
2022-09-29T06:42:52.070Z,17.15
2022-09-29T06:45:22.174Z,17.20
2022-09-29T06:47:51.909Z,17.21
2022-09-29T06:50:19.921Z,17.21
2022-09-29T06:52:59.904Z,17.19
2022-09-29T06:55:30.452Z,17.12
2022-09-29T06:58:03.514Z,17.10
2022-09-29T07:00:32.935Z,17.11
2022-09-29T07:03:02.368Z,17.07
2022-09-29T07:05:30.282Z,17.18
2022-09-29T07:08:01.106Z,17.17
2022-09-29T07:10:29.388Z,17.13
2022-09-29T07:12:57.329Z,17.17
2022-09-29T07:15:31.640Z,17.19
2022-09-29T07:18:00.125Z,17.22
2022-09-29T07:20:29.926Z,17.25
2022-09-29T07:22:57.851Z,17.27
2022-09-29T07:25:50.166Z,17.33
2022-09-29T07:28:13.849Z,17.37
2022-09-29T07:30:41.907Z,17.40
2022-09-29T07:33:10.314Z,17.40
2022-09-29T07:35:40.195Z,17.40
2022-09-29T07:38:11.600Z,17.42
2022-09-29T07:40:39.629Z,17.45
2022-09-29T07:43:07.692Z,17.42
2022-09-29T07:45:35.735Z,17.54
2022-09-29T07:48:03.958Z,17.62
2022-09-29T07:50:32.604Z,17.70
2022-09-29T07:53:02.420Z,17.74
2022-09-29T07:55:31.250Z,17.76
2022-09-29T07:58:01.737Z,17.78
2022-09-29T08:00:31.109Z,17.78
2022-09-29T08:03:02.411Z,17.75
2022-09-29T08:05:33.539Z,17.71
2022-09-29T08:08:04.159Z,17.64
2022-09-29T08:10:35.259Z,17.50
2022-09-29T08:13:09.300Z,17.50
2022-09-29T08:15:37.262Z,17.51
2022-09-29T08:18:05.286Z,17.54
2022-09-29T08:20:33.179Z,17.60
2022-09-29T08:23:02.603Z,17.36
2022-09-29T08:25:30.516Z,17.74
2022-09-29T08:27:58.419Z,17.80
2022-09-29T08:30:26.347Z,17.88
2022-09-29T08:32:54.862Z,17.96
2022-09-29T08:35:22.802Z,18.05
2022-09-29T08:37:50.693Z,18.15
2022-09-29T08:40:20.421Z,18.24
2022-09-29T08:42:55.580Z,18.28
2022-09-29T08:45:26.610Z,18.31
2022-09-29T08:47:54.838Z,18.39
2022-09-29T08:50:27.149Z,18.48
2022-09-29T08:52:56.613Z,18.49
2022-09-29T08:55:29.653Z,18.65
2022-09-29T08:57:59.233Z,18.67
2022-09-29T09:00:34.784Z,18.78
2022-09-29T09:03:13.837Z,18.75
2022-09-29T09:05:50.039Z,18.80
2022-09-29T09:08:23.095Z,18.82
2022-09-29T09:10:55.549Z,18.85
2022-09-29T09:13:33.806Z,18.88
2022-09-29T09:16:11.782Z,18.91
2022-09-29T09:18:55.984Z,18.93
2022-09-29T09:21:27.360Z,18.96
2022-09-29T09:23:59.872Z,18.98
2022-09-29T09:26:33.706Z,18.95
2022-09-29T09:29:04.198Z,18.97
2022-09-29T09:31:34.478Z,18.99
2022-09-29T09:34:06.557Z,18.99
2022-09-29T09:36:36.764Z,19.02
2022-09-29T09:39:07.564Z,19.03
2022-09-29T09:41:37.377Z,19.06
2022-09-29T09:44:08.270Z,19.12
2022-09-29T09:46:39.758Z,19.21
2022-09-29T09:49:15.144Z,19.29
2022-09-29T09:51:47.311Z,19.36
2022-09-29T09:54:25.113Z,19.42
2022-09-29T09:57:14.935Z,19.47
2022-09-29T09:59:52.803Z,19.34
2022-09-29T10:02:24.277Z,19.56
2022-09-29T10:04:52.889Z,19.63
2022-09-29T10:07:21.130Z,19.70
2022-09-29T10:09:49.186Z,19.77
2022-09-29T10:12:18.980Z,19.87
2022-09-29T10:14:49.996Z,19.95
2022-09-29T10:17:18.338Z,20.06
2022-09-29T10:20:07.717Z,19.89
2022-09-29T10:22:35.670Z,20.31
2022-09-29T10:25:09.285Z,20.49
2022-09-29T10:27:40.709Z,20.73
2022-09-29T10:30:18.651Z,21.02
2022-09-29T10:32:46.750Z,21.16
2022-09-29T10:35:18.420Z,21.39
2022-09-29T10:37:48.546Z,21.72
2022-09-29T10:40:20.913Z,21.93
2022-09-29T10:42:51.251Z,22.11
2022-09-29T10:45:20.144Z,22.19
2022-09-29T10:47:48.794Z,22.23
2022-09-29T10:50:18.349Z,22.38
2022-09-29T10:52:48.949Z,22.35
2022-09-29T10:55:19.441Z,22.06
2022-09-29T10:57:47.629Z,21.67
2022-09-29T11:00:34.474Z,21.70
2022-09-29T11:03:09.850Z,21.70
2022-09-29T11:05:37.833Z,21.88
2022-09-29T11:08:05.808Z,22.06
2022-09-29T11:10:34.393Z,22.28
2022-09-29T11:13:24.748Z,22.41
2022-09-29T11:15:54.110Z,22.67
2022-09-29T11:18:23.857Z,23.15
2022-09-29T11:20:54.376Z,23.40
2022-09-29T11:23:28.421Z,23.47
2022-09-29T11:26:28.964Z,23.35
2022-09-29T11:29:19.202Z,23.54
2022-09-29T11:31:56.304Z,23.79
2022-09-29T11:34:40.665Z,23.71
2022-09-29T11:37:14.845Z,23.59
2022-09-29T11:39:50.395Z,23.40
2022-09-29T11:42:26.111Z,23.05
2022-09-29T11:44:59.345Z,22.89
2022-09-29T11:47:59.964Z,23.00
2022-09-29T11:50:36.974Z,23.11
2022-09-29T11:53:21.492Z,23.24
2022-09-29T11:55:54.784Z,23.27
2022-09-29T11:58:41.271Z,23.23
2022-09-29T12:01:20.464Z,23.15
2022-09-29T12:03:51.650Z,23.19
2022-09-29T12:06:40.137Z,23.22
2022-09-29T12:09:21.119Z,23.13
2022-09-29T12:12:18.797Z,23.03
2022-09-29T12:14:57.968Z,23.19
2022-09-29T12:17:25.964Z,23.22
2022-09-29T12:19:59.570Z,23.45
2022-09-29T12:22:27.628Z,23.48
2022-09-29T12:24:56.024Z,23.52
2022-09-29T12:27:26.126Z,23.44
2022-09-29T12:29:56.956Z,23.50
2022-09-29T12:32:26.946Z,23.65
2022-09-29T12:34:57.264Z,23.77
2022-09-29T12:37:27.260Z,23.72
2022-09-29T12:40:01.061Z,23.63
2022-09-29T12:42:42.490Z,23.26
2022-09-29T12:45:14.006Z,23.38
2022-09-29T12:47:51.201Z,23.62
2022-09-29T12:50:22.184Z,23.83
2022-09-29T12:52:55.307Z,24.07
2022-09-29T12:55:26.506Z,24.01
2022-09-29T12:57:54.424Z,24.35
2022-09-29T13:00:24.799Z,24.29
2022-09-29T13:03:06.753Z,24.24
2022-09-29T13:06:22.335Z,24.19
2022-09-29T13:09:09.866Z,24.03
2022-09-29T13:11:55.910Z,23.95
2022-09-29T13:14:31.551Z,23.80
2022-09-29T13:17:10.037Z,23.58
2022-09-29T13:20:09.013Z,23.29
2022-09-29T13:23:20.262Z,23.06
2022-09-29T13:25:56.077Z,22.97
2022-09-29T13:28:27.493Z,22.79
2022-09-29T13:30:56.153Z,22.80
2022-09-29T13:33:24.578Z,22.71
2022-09-29T13:35:52.495Z,22.68
2022-09-29T13:38:21.509Z,22.55
2022-09-29T13:41:15.800Z,22.73
2022-09-29T13:44:04.581Z,22.78
2022-09-29T13:46:39.920Z,22.97
2022-09-29T13:49:25.075Z,23.14
2022-09-29T13:51:54.137Z,22.98
2022-09-29T13:54:46.573Z,23.42
2022-09-29T13:57:27.891Z,24.24
2022-09-29T14:00:27.078Z,25.28
2022-09-29T14:03:24.053Z,26.21
2022-09-29T14:06:36.047Z,27.09
2022-09-29T14:09:00.635Z,27.97
2022-09-29T14:11:30.232Z,28.54
2022-09-29T14:14:02.119Z,28.91
2022-09-29T14:16:37.964Z,29.13
2022-09-29T14:19:07.984Z,29.87
2022-09-29T14:21:53.518Z,30.48
2022-09-29T14:24:47.162Z,31.03
2022-09-29T14:27:32.486Z,31.32
2022-09-29T14:30:13.377Z,30.86
2022-09-29T14:32:45.559Z,30.84
2022-09-29T14:35:19.247Z,31.40
2022-09-29T14:37:47.386Z,31.97
2022-09-29T14:40:37.407Z,32.36
2022-09-29T14:43:07.025Z,32.86
2022-09-29T14:45:56.948Z,33.09
2022-09-29T14:48:45.220Z,33.41
2022-09-29T14:51:32.079Z,33.78
2022-09-29T14:54:03.005Z,33.77
2022-09-29T14:56:41.788Z,33.43
2022-09-29T14:59:18.946Z,33.12
2022-09-29T15:02:21.839Z,32.64
2022-09-29T15:04:49.916Z,32.05
2022-09-29T15:07:18.786Z,31.71
2022-09-29T15:09:47.577Z,31.71
2022-09-29T15:12:18.876Z,31.61
2022-09-29T15:14:46.767Z,31.62
2022-09-29T15:17:19.944Z,31.71
2022-09-29T15:19:56.050Z,31.79
2022-09-29T15:23:00.635Z,31.51
2022-09-29T15:25:30.650Z,31.43
2022-09-29T15:28:01.057Z,31.37
2022-09-29T15:30:29.106Z,31.13
2022-09-29T15:33:16.191Z,30.67
2022-09-29T15:35:46.095Z,29.89
2022-09-29T15:38:19.025Z,29.32
2022-09-29T15:40:47.293Z,28.80
2022-09-29T15:43:22.985Z,28.15
2022-09-29T15:45:59.554Z,27.56
2022-09-29T15:48:29.010Z,27.02
2022-09-29T15:50:58.320Z,26.58
2022-09-29T15:53:27.676Z,26.06
2022-09-29T15:55:56.132Z,25.67
2022-09-29T15:58:38.215Z,25.34
2022-09-29T16:01:07.073Z,25.14
2022-09-29T16:03:41.140Z,25.02
2022-09-29T16:06:18.973Z,24.77
2022-09-29T16:08:47.794Z,24.53
2022-09-29T16:11:21.884Z,24.31
2022-09-29T16:13:54.724Z,24.05
2022-09-29T16:16:31.627Z,23.80
2022-09-29T16:19:03.790Z,23.54
2022-09-29T16:21:36.509Z,23.02
2022-09-29T16:24:13.525Z,23.09
2022-09-29T16:26:42.732Z,22.86
2022-09-29T16:29:31.976Z,22.77
2022-09-29T16:32:03.513Z,22.66
2022-09-29T16:34:34.331Z,22.55
2022-09-29T16:37:03.606Z,22.59
2022-09-29T16:39:33.496Z,22.58
2022-09-29T16:42:03.706Z,22.70
2022-09-29T16:44:35.051Z,22.74
2022-09-29T16:47:04.917Z,22.74
2022-09-29T16:49:36.231Z,22.67
2022-09-29T16:52:12.552Z,22.53
2022-09-29T16:54:41.999Z,22.39
2022-09-29T16:57:31.203Z,22.35
2022-09-29T17:00:03.184Z,22.12
2022-09-29T17:02:31.200Z,22.13
2022-09-29T17:05:01.420Z,22.02
2022-09-29T17:07:31.444Z,22.05
2022-09-29T17:10:00.449Z,22.06
2022-09-29T17:12:29.116Z,22.01
2022-09-29T17:14:57.824Z,22.01
2022-09-29T17:17:26.432Z,21.98
2022-09-29T17:19:56.696Z,21.93
2022-09-29T17:22:33.995Z,21.86
2022-09-29T17:25:02.174Z,21.80
2022-09-29T17:27:47.684Z,21.78
2022-09-29T17:30:21.117Z,21.73
2022-09-29T17:32:49.244Z,21.67
2022-09-29T17:35:17.709Z,21.60
2022-09-29T17:37:49.975Z,21.47
2022-09-29T17:40:22.449Z,21.40
2022-09-29T17:42:53.358Z,21.33
2022-09-29T17:45:21.639Z,21.30
2022-09-29T17:47:49.749Z,21.25
2022-09-29T17:50:21.562Z,21.06
2022-09-29T17:52:50.851Z,21.10
2022-09-29T17:55:18.909Z,21.08
2022-09-29T17:57:49.955Z,20.99
2022-09-29T18:00:19.318Z,20.89
2022-09-29T18:02:47.260Z,20.80
2022-09-29T18:05:15.897Z,20.73
2022-09-29T18:07:43.837Z,20.63
2022-09-29T18:10:18.981Z,20.57
2022-09-29T18:12:46.892Z,20.44
2022-09-29T18:15:15.518Z,20.38
2022-09-29T18:17:43.496Z,20.19
2022-09-29T18:20:16.496Z,20.16
2022-09-29T18:22:46.108Z,20.04
2022-09-29T18:25:14.313Z,19.92
2022-09-29T18:27:43.588Z,19.81
2022-09-29T18:30:19.654Z,19.71
2022-09-29T18:32:48.533Z,19.57
2022-09-29T18:35:17.491Z,19.49
2022-09-29T18:37:45.426Z,19.36
2022-09-29T18:40:15.916Z,19.27
2022-09-29T18:42:45.944Z,19.17
2022-09-29T18:45:14.648Z,19.04
2022-09-29T18:47:43.969Z,18.96
2022-09-29T18:50:15.746Z,18.88
2022-09-29T18:52:43.762Z,18.80
2022-09-29T18:55:13.344Z,18.72
2022-09-29T18:57:42.648Z,18.63
2022-09-29T19:00:14.561Z,18.56
2022-09-29T19:02:42.794Z,18.50
2022-09-29T19:05:13.207Z,18.46
2022-09-29T19:07:41.104Z,18.40
2022-09-29T19:10:10.029Z,18.31
2022-09-29T19:12:37.960Z,18.27
2022-09-29T19:15:06.564Z,18.21
2022-09-29T19:17:35.877Z,18.12
2022-09-29T19:20:03.871Z,18.03
2022-09-29T19:22:38.386Z,17.93
2022-09-29T19:25:07.675Z,17.87
2022-09-29T19:27:35.541Z,17.80
2022-09-29T19:30:04.149Z,17.74
2022-09-29T19:32:32.074Z,17.67
2022-09-29T19:35:04.525Z,17.62
2022-09-29T19:37:32.661Z,17.56
2022-09-29T19:40:00.570Z,17.54
2022-09-29T19:42:35.629Z,17.50
2022-09-29T19:45:04.490Z,17.49
2022-09-29T19:47:32.600Z,17.48
2022-09-29T19:50:14.372Z,17.34
2022-09-29T19:52:43.712Z,17.46
2022-09-29T19:55:14.484Z,17.36
2022-09-29T19:57:42.618Z,17.40
2022-09-29T20:00:11.710Z,17.38
2022-09-29T20:02:41.156Z,17.37
2022-09-29T20:05:09.955Z,17.35
2022-09-29T20:07:37.978Z,17.33
2022-09-29T20:10:08.450Z,17.31
2022-09-29T20:12:42.702Z,17.16
2022-09-29T20:15:11.916Z,17.25
2022-09-29T20:17:40.293Z,17.21
2022-09-29T20:20:11.926Z,17.15
2022-09-29T20:22:40.209Z,17.08
2022-09-29T20:25:11.086Z,17.07
2022-09-29T20:27:39.964Z,17.04
2022-09-29T20:30:11.967Z,17.00
2022-09-29T20:32:40.270Z,16.85
2022-09-29T20:35:08.561Z,16.93
2022-09-29T20:37:36.453Z,16.91
2022-09-29T20:40:04.617Z,16.88
2022-09-29T20:42:38.426Z,16.89
2022-09-29T20:45:07.933Z,16.90
2022-09-29T20:47:37.136Z,16.87
2022-09-29T20:50:05.442Z,16.88
2022-09-29T20:52:33.345Z,16.83
2022-09-29T20:55:02.440Z,16.83
2022-09-29T20:57:30.343Z,16.82
2022-09-29T20:59:59.649Z,16.75
2022-09-29T21:02:27.749Z,16.82
2022-09-29T21:04:55.756Z,16.79
2022-09-29T21:07:37.520Z,16.83
2022-09-29T21:10:06.078Z,16.79
2022-09-29T21:12:34.094Z,16.79
2022-09-29T21:15:03.511Z,16.80
2022-09-29T21:17:31.614Z,16.83
2022-09-29T21:19:59.493Z,16.86
2022-09-29T21:22:28.053Z,16.88
2022-09-29T21:24:59.149Z,16.87
2022-09-29T21:27:29.164Z,16.90
2022-09-29T21:29:57.083Z,16.92
2022-09-29T21:32:29.548Z,16.97
2022-09-29T21:34:57.974Z,16.95
2022-09-29T21:37:25.877Z,16.93
2022-09-29T21:39:53.866Z,16.88
2022-09-29T21:42:21.877Z,16.79
2022-09-29T21:44:49.831Z,16.75
2022-09-29T21:47:17.763Z,16.66
2022-09-29T21:49:47.400Z,16.57
2022-09-29T21:52:15.291Z,16.50
2022-09-29T21:54:43.214Z,16.44
2022-09-29T21:57:11.140Z,16.40
2022-09-29T21:59:39.034Z,16.38
2022-09-29T22:02:07.455Z,16.36
2022-09-29T22:04:35.459Z,16.33
2022-09-29T22:07:04.746Z,16.29
2022-09-29T22:09:32.716Z,16.26
2022-09-29T22:12:00.662Z,16.22
2022-09-29T22:14:28.705Z,16.19
2022-09-29T22:16:56.668Z,16.17
2022-09-29T22:19:25.311Z,16.10
2022-09-29T22:21:53.560Z,16.06
2022-09-29T22:24:26.573Z,16.00
2022-09-29T22:26:54.602Z,15.96
2022-09-29T22:29:22.724Z,15.93
2022-09-29T22:31:50.850Z,15.91
2022-09-29T22:34:18.816Z,15.91
2022-09-29T22:36:46.682Z,15.88
2022-09-29T22:39:14.798Z,15.91
2022-09-29T22:41:44.095Z,15.89
2022-09-29T22:44:12.420Z,15.86
2022-09-29T22:46:40.433Z,15.81
2022-09-29T22:49:08.421Z,15.77
2022-09-29T22:51:36.348Z,15.74
2022-09-29T22:54:04.273Z,15.69
2022-09-29T22:56:32.200Z,15.64
2022-09-29T22:59:02.390Z,15.60
2022-09-29T23:01:30.647Z,15.53
2022-09-29T23:03:58.705Z,15.47
2022-09-29T23:06:26.751Z,15.40
2022-09-29T23:08:55.282Z,15.35
2022-09-29T23:11:23.576Z,15.33
2022-09-29T23:13:52.878Z,15.31
2022-09-29T23:16:22.382Z,15.28
2022-09-29T23:18:53.448Z,15.14
2022-09-29T23:21:21.368Z,15.16
2022-09-29T23:23:49.505Z,15.14
2022-09-29T23:26:17.802Z,15.15
2022-09-29T23:28:45.709Z,15.13
2022-09-29T23:31:14.700Z,15.12
2022-09-29T23:33:44.057Z,15.06
2022-09-29T23:36:12.803Z,15.03
2022-09-29T23:38:58.402Z,15.00
2022-09-29T23:41:27.217Z,14.95
2022-09-29T23:43:56.640Z,14.88
2022-09-29T23:46:24.854Z,14.86
2022-09-29T23:48:54.153Z,14.84
2022-09-29T23:51:22.809Z,14.81
2022-09-29T23:53:50.922Z,14.80
2022-09-29T23:56:18.823Z,14.79
2022-09-29T23:58:46.737Z,14.79
